Time;durP1;ratioP1;P1;durP2;ratioP2;P2;SDS_P1;SDS_P2;PMS_P1;PMS_P2;Temp;Humidity;BMP_temperature;BMP_pressure;BME280_temperature;BME280_humidity;BME280_pressure;Samples;Min_cycle;Max_cycle;Signal;HPM_P1;HPM_P2
2021/12/21 00:01:35;;;;;;;2.97;2.00;;;;;;;-0.78;64.66;100361.06;6277868;28;20048;-75
2021/12/21 00:04:35;;;;;;;3.40;1.83;;;;;;;-0.91;65.48;100356.88;6277797;28;20087;-74
2021/12/21 00:07:36;;;;;;;2.72;1.83;;;;;;;-1.09;65.99;100361.31;6244779;28;20044;-75
2021/12/21 00:10:42;;;;;;;3.08;1.80;;;;;;;-1.03;65.22;100357.84;6277756;28;20077;-75
2021/12/21 00:17:05;;;;;;;4.13;2.03;;;;;;;-1.12;66.57;100365.63;6278830;28;20123;-74
2021/12/21 00:23:30;;;;;;;4.75;2.10;;;;;;;-1.24;67.37;100369.13;6280877;28;20480;-79
2021/12/21 00:26:31;;;;;;;2.75;2.10;;;;;;;-1.27;66.42;100380.25;6266704;28;20049;-79
2021/12/21 00:29:31;;;;;;;2.53;1.73;;;;;;;-1.13;66.44;100384.38;6282082;28;20154;-79
2021/12/21 00:32:32;;;;;;;5.63;2.45;;;;;;;-1.17;66.44;100392.97;6280835;28;20128;-79
2021/12/21 00:35:33;;;;;;;4.97;2.33;;;;;;;-1.31;67.75;100386.25;6280187;28;20095;-78
2021/12/21 00:38:34;;;;;;;3.88;2.47;;;;;;;-1.24;66.59;100393.00;6279974;28;20099;-78
2021/12/21 00:41:35;;;;;;;6.80;2.50;;;;;;;-1.39;69.41;100395.69;6263075;28;20037;-79
2021/12/21 00:44:36;;;;;;;4.75;2.40;;;;;;;-1.42;66.89;100405.97;6247083;28;20040;-78
2021/12/21 00:47:40;;;;;;;3.95;2.20;;;;;;;-1.49;65.81;100407.69;6283763;28;20041;-78
2021/12/21 00:50:41;;;;;;;5.63;2.33;;;;;;;-1.51;65.50;100408.56;6282634;28;20041;-78
2021/12/21 00:53:42;;;;;;;5.28;2.30;;;;;;;-1.63;67.73;100417.16;6265647;28;20103;-77
2021/12/21 00:56:43;;;;;;;4.63;2.50;;;;;;;-1.62;67.20;100417.16;6277077;28;20037;-78
2021/12/21 00:59:44;;;;;;;5.35;2.67;;;;;;;-1.45;67.83;100421.31;6260985;28;20041;-78
2021/12/21 01:02:45;;;;;;;5.53;2.65;;;;;;;-1.45;69.33;100422.16;6281037;28;20049;-78
2021/12/21 01:06:13;;;;;;;5.05;2.83;;;;;;;-1.49;68.89;100425.59;6280777;28;20551;-78
2021/12/21 01:12:49;;;;;;;5.80;2.83;;;;;;;-1.54;68.78;100429.91;6281188;28;20075;-79
2021/12/21 01:22:19;;;;;;;6.28;2.85;;;;;;;-1.60;69.54;100436.78;6280298;28;20045;-79
2021/12/21 01:34:41;;;;;;;4.57;2.55;;;;;;;-1.90;71.12;100451.38;6272154;28;20056;-75
2021/12/21 01:37:54;;;;;;;6.90;2.80;;;;;;;-1.83;72.45;100458.19;6272683;28;20087;-74
2021/12/21 01:41:21;;;;;;;6.50;2.80;;;;;;;-1.74;71.45;100458.13;6272375;28;20091;-74
2021/12/21 01:51:06;;;;;;;6.72;2.40;;;;;;;-1.66;70.84;100478.59;6272205;28;20075;-74
2021/12/21 01:54:07;;;;;;;5.77;2.77;;;;;;;-1.53;69.17;100477.66;6255426;28;20131;-73
2021/12/21 01:57:09;;;;;;;5.13;2.58;;;;;;;-1.60;68.43;100483.69;6255231;28;20051;-74
2021/12/21 02:00:10;;;;;;;7.30;3.42;;;;;;;-1.55;69.64;100486.22;6273054;28;20045;-74
2021/12/21 02:03:11;;;;;;;5.70;2.03;;;;;;;-1.67;67.36;100493.09;6271414;28;20048;-74
2021/12/21 02:06:14;;;;;;;4.68;2.20;;;;;;;-1.89;68.68;100504.25;6254521;28;20120;-74
2021/12/21 02:09:19;;;;;;;3.88;2.58;;;;;;;-1.57;67.55;100509.25;6272144;28;20037;-74
2021/12/21 02:12:21;;;;;;;5.10;2.15;;;;;;;-1.60;67.92;100504.16;6271516;28;20498;-73
2021/12/21 02:15:24;;;;;;;5.22;2.78;;;;;;;-1.72;65.92;100514.44;6271334;28;20513;-74
2021/12/21 02:18:38;;;;;;;4.43;2.70;;;;;;;-1.56;67.14;100510.13;6271380;28;20051;-74
2021/12/21 02:21:46;;;;;;;5.03;2.25;;;;;;;-1.54;66.57;100514.38;6271576;28;20160;-74
2021/12/21 02:25:04;;;;;;;4.15;2.25;;;;;;;-1.72;67.90;100519.53;6271285;28;20497;-74
2021/12/21 02:31:17;;;;;;;4.32;2.35;;;;;;;-1.78;64.35;100515.28;6271176;28;20072;-74
2021/12/21 02:34:18;;;;;;;4.55;2.28;;;;;;;-1.80;62.78;100511.03;6270835;28;20053;-74
2021/12/21 02:37:19;;;;;;;3.85;1.73;;;;;;;-2.00;62.25;100516.19;6270906;28;20407;-74
2021/12/21 02:40:20;;;;;;;4.15;2.03;;;;;;;-2.07;63.50;100500.88;6272034;28;20120;-75
2021/12/21 02:43:21;;;;;;;3.50;1.50;;;;;;;-2.08;61.36;100517.09;6254178;28;20037;-79
2021/12/21 02:46:24;;;;;;;1.75;1.02;;;;;;;-2.27;60.56;100513.69;6272169;28;20053;-78
2021/12/21 02:49:25;;;;;;;4.20;1.88;;;;;;;-2.34;61.24;100521.38;6271748;28;20519;-78
2021/12/21 02:52:27;;;;;;;1.48;1.20;;;;;;;-2.45;60.57;100517.13;6270695;28;20065;-80
2021/12/21 02:55:28;;;;;;;4.90;1.45;;;;;;;-2.39;60.32;100530.72;6270562;28;20041;-79
2021/12/21 02:58:29;;;;;;;1.48;0.95;;;;;;;-2.54;60.41;100526.50;6271739;28;20048;-78
2021/12/21 03:01:30;;;;;;;3.22;2.00;;;;;;;-2.48;61.20;100529.03;6253914;28;20049;-78
2021/12/21 03:04:31;;;;;;;17.95;2.05;;;;;;;-2.61;61.18;100525.63;6271768;28;20048;-78
2021/12/21 03:11:37;;;;;;;2.97;1.75;;;;;;;-2.65;60.72;100540.09;6266972;28;20150;-78
2021/12/21 03:14:19;;;;;;;2.78;1.48;;;;;;;-2.72;62.07;100530.75;6257266;28;20067;-79
2021/12/21 03:17:21;;;;;;;6.50;1.98;;;;;;;-2.56;61.71;100541.81;6253620;28;20040;-78
2021/12/21 03:20:23;;;;;;;3.03;1.57;;;;;;;-2.80;60.62;100531.56;6269732;28;20407;-78
2021/12/21 03:23:24;;;;;;;1.90;1.17;;;;;;;-2.84;60.47;100535.84;6270168;28;20369;-78
2021/12/21 03:26:25;;;;;;;1.58;1.42;;;;;;;-2.83;60.19;100540.94;6270070;28;20153;-78
2021/12/21 03:29:26;;;;;;;3.45;1.60;;;;;;;-2.68;60.79;100539.25;6271358;28;20037;-79
2021/12/21 03:32:27;;;;;;;3.50;1.52;;;;;;;-2.67;61.15;100548.63;6270903;28;20446;-79
2021/12/21 03:35:27;;;;;;;4.22;1.70;;;;;;;-2.75;62.28;100565.66;6269909;28;20056;-79
2021/12/21 03:38:29;;;;;;;1.23;0.88;;;;;;;-2.76;60.26;100566.47;6269844;28;20048;-78
2021/12/21 03:41:30;;;;;;;1.33;0.85;;;;;;;-2.89;61.82;100568.16;6270867;28;20041;-79
2021/12/21 03:44:31;;;;;;;4.47;1.83;;;;;;;-2.65;59.41;100582.69;6269920;28;20045;-78
2021/12/21 03:47:32;;;;;;;2.40;1.30;;;;;;;-2.76;59.08;100586.91;6269776;28;20159;-78
2021/12/21 03:50:33;;;;;;;2.63;1.38;;;;;;;-2.69;59.74;100607.38;6253207;28;20053;-78
2021/12/21 03:53:34;;;;;;;3.25;1.85;;;;;;;-2.78;59.97;100599.72;6271097;28;20496;-78
2021/12/21 03:59:41;;;;;;;5.47;1.70;;;;;;;-2.67;58.19;100610.78;6271840;28;20049;-78
2021/12/21 04:02:42;;;;;;;3.70;1.85;;;;;;;-2.55;59.54;100611.66;6271989;28;20037;-78
2021/12/21 04:05:43;;;;;;;5.18;2.15;;;;;;;-2.67;58.29;100610.78;6271125;28;20049;-78
2021/12/21 04:08:44;;;;;;;4.63;2.25;;;;;;;-2.54;59.85;100611.66;6269667;28;20121;-73
2021/12/21 04:11:45;;;;;;;4.20;2.35;;;;;;;-2.52;60.35;100604.84;6252927;28;20380;-79
2021/12/21 04:14:46;;;;;;;7.30;2.85;;;;;;;-2.61;59.17;100621.84;6270704;28;20090;-79
2021/12/21 04:17:47;;;;;;;4.32;2.38;;;;;;;-2.53;61.41;100607.38;6236733;28;20041;-79
2021/12/21 04:20:49;;;;;;;2.92;1.75;;;;;;;-2.57;62.29;100619.34;6270466;28;20056;-75
2021/12/21 04:23:49;;;;;;;4.53;2.03;;;;;;;-2.63;62.89;100622.72;6252900;28;20124;-75
2021/12/21 04:26:50;;;;;;;4.25;2.03;;;;;;;-2.71;62.04;100615.91;6270428;28;20636;-75
2021/12/21 04:29:51;;;;;;;5.13;2.70;;;;;;;-2.67;63.09;100615.06;6269493;28;20384;-74
2021/12/21 04:32:52;;;;;;;4.25;2.30;;;;;;;-2.74;63.19;100626.09;6273969;28;20127;-74
2021/12/21 04:35:53;;;;;;;5.30;2.70;;;;;;;-2.74;63.35;100626.09;6275112;28;20120;-79
2021/12/21 04:38:55;;;;;;;6.72;2.85;;;;;;;-2.81;65.37;100627.78;6273986;28;20045;-79
2021/12/21 04:41:55;;;;;;;5.00;2.60;;;;;;;-2.79;64.80;100620.97;6257319;28;20479;-79
2021/12/21 04:44:56;;;;;;;6.03;2.72;;;;;;;-2.81;65.85;100626.94;6257437;28;20064;-79
2021/12/21 04:47:57;;;;;;;6.32;2.90;;;;;;;-2.83;65.23;100626.94;6257119;28;20059;-79
2021/12/21 04:50:58;;;;;;;8.07;3.72;;;;;;;-2.95;65.67;100625.19;6273712;28;20068;-79
2021/12/21 04:53:59;;;;;;;8.38;3.28;;;;;;;-3.00;65.13;100628.59;6274688;28;20041;-79
2021/12/21 04:56:59;;;;;;;6.75;3.05;;;;;;;-2.96;66.64;100636.25;6273542;28;20120;-79
2021/12/21 05:00:00;;;;;;;9.43;3.08;;;;;;;-3.07;65.93;100635.34;6274559;28;20545;-79
2021/12/21 05:03:01;;;;;;;4.68;2.95;;;;;;;-3.11;65.65;100641.28;6274625;28;20041;-79
2021/12/21 05:06:02;;;;;;;7.35;3.15;;;;;;;-3.11;65.66;100641.28;6273269;28;20120;-79
2021/12/21 05:09:22;;;;;;;8.23;2.95;;;;;;;-3.19;65.56;100641.28;6256664;28;20061;-79
2021/12/21 05:12:24;;;;;;;5.93;2.95;;;;;;;-3.22;67.55;100653.16;6258842;28;20127;-79
2021/12/21 05:15:25;;;;;;;8.13;3.50;;;;;;;-3.25;66.96;100654.00;6274079;28;20041;-79
2021/12/21 05:18:26;;;;;;;7.63;3.40;;;;;;;-3.28;67.50;100654.81;6272850;28;20056;-79
2021/12/21 05:21:27;;;;;;;7.68;3.67;;;;;;;-3.27;68.46;100659.09;6274584;28;20067;-79
2021/12/21 05:24:28;;;;;;;5.70;2.92;;;;;;;-3.29;67.34;100659.94;6272879;28;20041;-79
2021/12/21 05:27:29;;;;;;;8.45;3.50;;;;;;;-3.31;68.79;100664.19;6272202;28;20043;-79
2021/12/21 05:30:30;;;;;;;11.40;4.10;;;;;;;-3.36;69.23;100668.38;6273673;28;20072;-79
2021/12/21 05:33:31;;;;;;;8.55;4.43;;;;;;;-3.35;69.69;100672.66;6272345;28;20543;-79
2021/12/21 05:36:31;;;;;;;8.77;4.82;;;;;;;-3.43;69.30;100669.22;6272466;28;20090;-79
2021/12/21 05:39:53;;;;;;;7.25;4.47;;;;;;;-3.52;68.96;100677.63;6273554;28;20041;-79
2021/12/21 05:42:54;;;;;;;7.33;4.30;;;;;;;-3.59;70.07;100676.75;6272168;28;20123;-79
2021/12/21 05:45:55;;;;;;;8.77;4.35;;;;;;;-3.53;70.87;100674.25;6272172;28;20506;-79
2021/12/21 05:48:56;;;;;;;9.75;4.20;;;;;;;-3.54;72.04;100672.56;6272745;28;20048;-74
2021/12/21 05:51:56;;;;;;;8.23;4.45;;;;;;;-3.56;71.05;100678.47;6247419;28;20041;-74
2021/12/21 05:54:57;;;;;;;9.43;4.15;;;;;;;-3.62;70.84;100686.94;6248560;28;20069;-74
2021/12/21 05:57:58;;;;;;;8.65;3.97;;;;;;;-3.61;72.00;100688.66;6247357;28;20644;-74
2021/12/21 06:00:59;;;;;;;12.27;5.72;;;;;;;-3.72;73.06;100693.69;6261900;28;20036;-74
2021/12/21 06:04:01;;;;;;;21.00;7.20;;;;;;;-3.68;71.75;100692.84;6253262;28;20086;-79
2021/12/21 06:07:02;;;;;;;14.68;6.28;;;;;;;-3.67;70.66;100706.44;6273010;28;20047;-80
2021/12/21 06:10:12;;;;;;;23.38;8.60;;;;;;;-3.69;70.50;100706.44;6247945;28;20053;-74
2021/12/21 06:26:18;;;;;;;17.70;7.20;;;;;;;-3.74;70.28;100737.88;6271592;28;20037;-74
2021/12/21 06:29:19;;;;;;;15.70;6.47;;;;;;;-3.82;70.61;100734.41;6271321;28;20451;-74
2021/12/21 06:32:20;;;;;;;21.73;6.68;;;;;;;-3.78;70.78;100736.13;6237977;28;20052;-73
2021/12/21 06:35:21;;;;;;;24.40;8.02;;;;;;;-3.71;71.92;100742.97;6246477;28;20111;-74
2021/12/21 06:38:22;;;;;;;25.40;7.35;;;;;;;-3.62;71.94;100750.72;6233035;28;20037;-75
2021/12/21 06:41:23;;;;;;;10.63;4.18;;;;;;;-3.60;73.78;100758.38;6272869;28;20104;-79
2021/12/21 06:44:24;;;;;;;11.52;4.00;;;;;;;-3.52;73.11;100766.94;6270952;28;20033;-80
2021/12/21 06:51:10;;;;;;;15.55;5.90;;;;;;;-3.57;73.41;100774.56;6267851;28;20053;-80
2021/12/21 06:54:11;;;;;;;11.55;4.88;;;;;;;-3.61;72.76;100775.38;6269981;28;20132;-80
2021/12/21 06:57:12;;;;;;;14.70;6.43;;;;;;;-3.38;73.20;100778.09;6270130;28;20103;-80
2021/12/21 07:00:15;;;;;;;17.58;7.57;;;;;;;-3.25;73.38;100784.19;6271435;28;20037;-80
2021/12/21 07:03:16;;;;;;;27.00;10.27;;;;;;;-3.30;73.94;100779.03;6269983;28;20148;-80
2021/12/21 07:06:18;;;;;;;23.00;10.15;;;;;;;-3.12;74.13;100780.00;6253889;28;20502;-80
2021/12/21 07:09:36;;;;;;;19.67;8.20;;;;;;;-3.19;74.96;100784.22;6271110;28;20033;-80
2021/12/21 07:18:58;;;;;;;10.73;5.55;;;;;;;-2.86;75.79;100788.69;6270977;28;20041;-75
2021/12/21 07:21:59;;;;;;;15.60;6.20;;;;;;;-2.76;75.33;100796.38;6269899;28;20041;-75
2021/12/21 07:25:00;;;;;;;14.88;7.60;;;;;;;-2.72;75.54;100801.53;6269956;28;20045;-75
2021/12/21 07:28:01;;;;;;;14.88;6.50;;;;;;;-2.65;74.68;100805.81;6270989;28;20040;-75
2021/12/21 07:31:02;;;;;;;10.48;4.38;;;;;;;-2.55;73.27;100816.06;6269872;28;20033;-75
2021/12/21 07:34:04;;;;;;;11.85;4.43;;;;;;;-2.51;72.92;100815.25;6253422;28;20060;-75
2021/12/21 07:37:09;;;;;;;9.68;4.07;;;;;;;-2.46;71.94;100816.13;6236447;28;20037;-76
2021/12/21 07:40:10;;;;;;;7.88;3.60;;;;;;;-2.13;72.20;100812.00;6246419;28;20080;-75
2021/12/21 07:43:11;;;;;;;7.25;3.17;;;;;;;-2.03;69.84;100821.41;6236833;28;20045;-75
2021/12/21 07:46:12;;;;;;;7.00;3.25;;;;;;;-1.82;69.34;100818.88;6269908;28;20072;-76
2021/12/21 07:49:13;;;;;;;5.07;2.80;;;;;;;-1.71;65.49;100826.59;6269360;28;20515;-80
2021/12/21 07:52:15;;;;;;;5.85;3.05;;;;;;;-1.48;67.66;100816.38;6271025;28;20041;-80
2021/12/21 07:55:15;;;;;;;5.07;2.92;;;;;;;-1.28;66.49;100803.56;6270938;28;20037;-80
2021/12/21 07:58:16;;;;;;;6.70;3.28;;;;;;;-1.15;65.71;100801.00;6270887;28;20041;-80
2021/12/21 08:01:18;;;;;;;8.38;3.05;;;;;;;-1.00;64.95;100798.44;6269673;28;20037;-79
2021/12/21 08:04:26;;;;;;;8.05;3.83;;;;;;;-1.04;63.78;100795.00;6270640;28;20446;-80
2021/12/21 08:07:33;;;;;;;6.65;2.60;;;;;;;-1.08;64.43;100788.19;6275931;28;20123;-80
2021/12/21 08:10:51;;;;;;;3.53;2.53;;;;;;;-1.04;63.47;100789.03;6274615;28;20048;-80
2021/12/21 08:13:52;;;;;;;5.93;3.28;;;;;;;-0.78;63.64;100786.44;6274192;28;20053;-80
2021/12/21 08:16:52;;;;;;;12.50;5.43;;;;;;;-0.73;61.69;100796.66;6275664;28;20479;-79
2021/12/21 08:19:53;;;;;;;9.27;4.72;;;;;;;-0.74;59.99;100807.75;6272467;28;20400;-79
2021/12/21 08:22:55;;;;;;;7.35;3.35;;;;;;;-0.58;59.73;100808.56;6238406;28;20048;-79
2021/12/21 08:25:56;;;;;;;11.98;3.92;;;;;;;-0.49;58.43;100806.00;6273421;28;20053;-79
2021/12/21 08:28:57;;;;;;;11.23;3.92;;;;;;;-0.46;58.28;100809.38;6274082;28;20047;-79
2021/12/21 08:31:58;;;;;;;5.82;2.40;;;;;;;-0.32;56.50;100814.47;6275251;28;20447;-79
2021/12/21 08:34:59;;;;;;;4.45;2.30;;;;;;;-0.34;56.64;100812.78;6257352;28;20049;-79
2021/12/21 08:38:04;;;;;;;3.33;1.90;;;;;;;-0.05;56.76;100817.75;6275153;28;20396;-78
2021/12/21 08:41:05;;;;;;;4.55;1.90;;;;;;;-0.05;55.18;100816.03;6273908;28;20072;-78
2021/12/21 08:44:06;;;;;;;3.13;1.75;;;;;;;0.22;54.56;100826.16;6274010;28;20049;-78
2021/12/21 08:47:07;;;;;;;8.88;2.20;;;;;;;0.31;55.58;100833.78;6274892;28;20068;-75
2021/12/21 08:50:11;;;;;;;5.05;1.90;;;;;;;0.34;54.08;100832.06;6274785;28;20051;-76
2021/12/21 08:53:14;;;;;;;7.20;2.13;;;;;;;0.53;53.96;100829.38;6274673;28;20083;-76
2021/12/21 08:56:16;;;;;;;4.70;2.17;;;;;;;0.39;55.15;100824.31;6273652;28;20044;-75
2021/12/21 08:59:18;;;;;;;4.20;2.10;;;;;;;0.43;54.13;100833.72;6240976;28;20048;-76
2021/12/21 09:02:18;;;;;;;4.50;2.00;;;;;;;0.54;54.35;100819.09;6273294;28;20041;-76
2021/12/21 09:05:24;;;;;;;2.45;1.77;;;;;;;0.64;54.94;100821.56;6256758;28;20147;-75
2021/12/21 09:08:25;;;;;;;6.85;2.58;;;;;;;0.55;53.21;100817.38;6273236;28;20041;-76
2021/12/21 09:11:26;;;;;;;4.63;2.05;;;;;;;0.76;52.71;100830.06;6274425;28;20472;-76
2021/12/21 09:14:31;;;;;;;3.80;1.85;;;;;;;0.89;52.40;100829.97;6274253;28;20122;-76
2021/12/21 09:17:32;;;;;;;5.38;2.42;;;;;;;0.95;53.46;100825.59;6273536;28;20052;-76
2021/12/21 09:20:34;;;;;;;6.22;2.13;;;;;;;1.16;53.78;100823.69;6273984;28;20470;-76
2021/12/21 09:23:34;;;;;;;3.88;2.38;;;;;;;1.12;51.25;100830.59;6272942;28;20037;-75
2021/12/21 09:26:38;;;;;;;14.60;5.75;;;;;;;1.22;51.75;100828.78;6256499;28;20045;-76
2021/12/21 09:29:38;;;;;;;12.80;3.95;;;;;;;1.18;52.36;100832.25;6272436;28;20110;-76
2021/12/21 09:32:40;;;;;;;14.82;6.40;;;;;;;1.13;54.07;100828.84;6272268;28;20054;-76
2021/12/21 09:35:41;;;;;;;9.95;5.55;;;;;;;1.34;53.47;100832.91;6256102;28;20041;-76
2021/12/21 09:38:43;;;;;;;7.32;3.30;;;;;;;1.56;53.71;100841.25;6273700;28;20049;-76
2021/12/21 09:41:44;;;;;;;7.60;2.83;;;;;;;1.12;53.44;100828.00;6272330;28;20051;-76
2021/12/21 09:44:46;;;;;;;5.88;2.95;;;;;;;0.92;55.72;100835.06;6271835;28;20048;-76
2021/12/21 09:47:51;;;;;;;6.13;3.28;;;;;;;0.96;55.32;100829.03;6272798;28;20048;-76
2021/12/21 09:50:52;;;;;;;3.50;2.15;;;;;;;1.11;55.12;100846.00;6271621;28;20033;-76
2021/12/21 09:53:55;;;;;;;4.30;2.40;;;;;;;1.21;54.00;100832.22;6271677;28;20047;-76
2021/12/21 09:56:56;;;;;;;3.13;1.83;;;;;;;1.13;55.24;100841.72;6259209;28;20079;-76
2021/12/21 09:59:57;;;;;;;3.95;2.15;;;;;;;0.97;55.47;100846.16;6269127;28;20051;-76
2021/12/21 10:03:08;;;;;;;2.92;1.85;;;;;;;0.91;57.70;100854.78;6270717;28;20040;-76
2021/12/21 10:06:10;;;;;;;5.30;2.53;;;;;;;0.74;56.21;100847.22;6271328;28;20084;-75
2021/12/21 10:09:11;;;;;;;5.60;2.63;;;;;;;0.65;57.48;100854.97;6272466;28;20493;-76
2021/12/21 10:12:37;;;;;;;7.82;2.97;;;;;;;0.50;59.72;100855.09;6270098;28;20037;-76
2021/12/21 10:15:40;;;;;;;7.47;3.28;;;;;;;0.35;60.88;100844.06;6270596;28;20064;-76
2021/12/21 10:18:41;;;;;;;8.70;3.63;;;;;;;0.59;62.04;100831.91;6271301;28;20043;-75
2021/12/21 10:21:46;;;;;;;6.90;3.38;;;;;;;0.44;62.61;100824.31;6270039;28;20041;-76
2021/12/21 10:24:52;;;;;;;9.70;3.80;;;;;;;0.96;62.06;100826.44;6270776;28;20040;-76
2021/12/21 10:27:53;;;;;;;7.72;3.65;;;;;;;1.20;60.79;100822.81;6265807;28;20065;-76
2021/12/21 10:30:55;;;;;;;4.53;2.47;;;;;;;1.11;59.32;100821.19;6263742;28;20403;-76
2021/12/21 10:33:57;;;;;;;;;;;;;;;1.38;59.13;100822.63;6264715;28;20107;-76
2021/12/21 10:36:58;;;;;;;4.50;2.42;;;;;;;1.35;59.70;100826.94;6266072;28;19974;-76
2021/12/21 10:40:10;;;;;;;5.88;3.28;;;;;;;1.51;59.45;100817.34;6270023;28;20446;-76
2021/12/21 10:43:13;;;;;;;9.63;3.22;;;;;;;1.72;58.61;100814.50;6270629;28;20039;-76
2021/12/21 10:46:14;;;;;;;8.25;3.17;;;;;;;1.59;58.52;100815.53;6254582;28;20037;-76
2021/12/21 10:49:26;;;;;;;4.68;2.53;;;;;;;1.63;58.75;100813.75;6271570;28;20499;-75
2021/12/21 10:52:26;;;;;;;9.52;2.95;;;;;;;1.61;59.31;100809.47;6271460;28;20090;-76
2021/12/21 10:55:38;;;;;;;6.50;2.97;;;;;;;1.72;58.54;100811.91;6271503;28;20116;-76
2021/12/21 10:58:42;;;;;;;6.57;3.08;;;;;;;1.80;61.29;100812.66;6271370;28;20044;-76
2021/12/21 11:01:43;;;;;;;5.90;2.40;;;;;;;1.63;59.19;100806.03;6269855;28;20044;-76
2021/12/21 11:04:52;;;;;;;5.70;2.40;;;;;;;1.82;59.55;100812.66;6253474;28;20045;-76
2021/12/21 11:08:03;;;;;;;3.50;2.00;;;;;;;1.72;58.54;100811.06;6271359;28;20518;-76
2021/12/21 11:11:10;;;;;;;8.15;3.08;;;;;;;1.78;57.64;100809.25;6271074;28;20045;-76
2021/12/21 11:14:14;;;;;;;10.15;4.10;;;;;;;1.89;57.16;100806.53;6268584;28;20132;-76
2021/12/21 11:17:15;;;;;;;12.73;4.63;;;;;;;1.90;57.17;100805.69;6271030;28;20439;-75
2021/12/21 11:20:16;;;;;;;9.35;3.42;;;;;;;2.05;56.84;100806.34;6271194;28;20036;-76
2021/12/21 11:23:20;;;;;;;15.93;6.32;;;;;;;1.87;57.55;100803.16;6269724;28;20126;-76
2021/12/21 11:26:26;;;;;;;5.40;2.63;;;;;;;1.87;57.49;100802.31;6270739;28;20400;-76
2021/12/21 11:29:27;;;;;;;13.80;5.80;;;;;;;2.17;58.77;100811.34;6245516;28;20042;-76
2021/12/21 11:32:31;;;;;;;3.75;2.50;;;;;;;1.95;58.49;100815.91;6266103;28;20075;-75
2021/12/21 11:38:34;;;;;;;8.50;3.40;;;;;;;1.64;58.93;100803.44;6270582;28;20179;-75
2021/12/21 11:41:37;;;;;;;4.82;2.85;;;;;;;1.57;61.21;100794.94;6269278;28;20052;-76
2021/12/21 11:44:55;;;;;;;5.47;2.38;;;;;;;1.54;59.24;100800.13;6269384;28;20542;-76
2021/12/21 11:48:10;;;;;;;8.05;4.63;;;;;;;1.66;58.77;100793.97;6270554;28;20433;-76
2021/12/21 11:51:13;;;;;;;8.60;3.80;;;;;;;1.66;58.40;100799.13;6270404;28;20457;-76
2021/12/21 11:54:22;;;;;;;6.85;3.85;;;;;;;1.61;58.97;100791.47;6270899;28;20110;-76
2021/12/21 11:57:37;;;;;;;6.18;3.50;;;;;;;1.34;59.31;100805.50;6262916;28;20071;-76
2021/12/21 12:00:44;;;;;;;13.45;5.28;;;;;;;1.37;58.86;100794.34;6267719;28;20122;-76
2021/12/21 12:04:05;;;;;;;4.15;2.30;;;;;;;1.16;60.58;100795.44;6268769;28;20403;-75
2021/12/21 12:07:18;;;;;;;6.28;3.50;;;;;;;1.10;61.41;100790.34;6255176;28;20273;-76
2021/12/21 12:10:21;;;;;;;5.88;2.88;;;;;;;1.17;63.24;100784.25;6270326;28;20369;-76
2021/12/21 12:13:31;;;;;;;11.85;2.85;;;;;;;1.04;60.33;100788.69;6269190;28;20483;-75
2021/12/21 12:16:49;;;;;;;8.90;2.88;;;;;;;1.09;61.63;100784.38;6269967;28;20560;-76
2021/12/21 12:19:55;;;;;;;6.75;2.92;;;;;;;1.16;62.48;100791.13;6270220;28;20534;-76
2021/12/21 12:23:06;;;;;;;7.65;3.05;;;;;;;1.28;60.43;100785.00;6268927;28;20089;-76
2021/12/21 12:26:07;;;;;;;4.53;2.80;;;;;;;1.76;60.18;100779.28;6269953;28;20637;-77
2021/12/21 12:29:18;;;;;;;4.55;2.45;;;;;;;1.90;58.89;100786.84;6266541;28;20045;-76
2021/12/21 12:32:35;;;;;;;6.32;3.08;;;;;;;1.79;59.60;100781.81;6266330;28;20056;-76
2021/12/21 12:35:37;;;;;;;6.95;3.38;;;;;;;1.97;60.62;100778.13;6269163;28;20120;-76
2021/12/21 12:38:44;;;;;;;6.25;2.88;;;;;;;2.14;61.80;100785.63;6235827;28;20037;-76
2021/12/21 12:41:46;;;;;;;6.00;3.00;;;;;;;1.95;62.60;100787.59;6270067;28;20045;-75
2021/12/21 12:44:55;;;;;;;;;;;;;;;1.69;63.89;100790.50;6270304;28;20094;-75
2021/12/21 12:47:57;;;;;;;8.40;3.47;;;;;;;1.79;65.31;100789.53;6269055;28;19920;-76
2021/12/21 12:51:05;;;;;;;3.80;2.53;;;;;;;1.50;66.19;100792.47;6270562;28;20052;-76
2021/12/21 12:54:15;;;;;;;5.65;3.15;;;;;;;1.68;66.76;100788.81;6272571;28;20041;-75
2021/12/21 12:57:38;;;;;;;10.13;4.45;;;;;;;1.76;66.98;100787.84;6271998;28;20033;-76
2021/12/21 13:00:43;;;;;;;9.45;3.30;;;;;;;1.79;67.21;100784.38;6273313;28;20037;-76
2021/12/21 13:03:44;;;;;;;5.28;3.15;;;;;;;1.99;65.86;100791.84;6273074;28;20064;-77
2021/12/21 13:06:51;;;;;;;10.63;4.85;;;;;;;2.08;64.58;100790.84;6256707;28;20036;-75
2021/12/21 13:10:01;;;;;;;5.85;3.08;;;;;;;1.94;64.72;100788.50;6273197;28;20045;-77
2021/12/21 13:13:02;;;;;;;7.78;3.75;;;;;;;2.18;63.27;100788.16;6255253;28;20048;-76
2021/12/21 13:16:12;;;;;;;7.25;3.67;;;;;;;2.36;64.06;100793.88;6274047;28;20072;-76
2021/12/21 13:19:14;;;;;;;9.60;4.38;;;;;;;2.36;64.86;100793.88;6274081;28;20385;-76
2021/12/21 13:22:21;;;;;;;8.07;4.20;;;;;;;2.30;64.14;100793.97;6273824;28;20079;-77
2021/12/21 13:25:22;;;;;;;7.85;4.30;;;;;;;2.20;64.68;100794.13;6272448;28;20033;-75
2021/12/21 13:28:25;;;;;;;6.82;3.90;;;;;;;2.19;65.04;100799.28;6256112;28;20037;-76
2021/12/21 13:31:26;;;;;;;7.35;3.92;;;;;;;2.06;66.24;100798.63;6272413;28;20041;-77
2021/12/21 13:34:28;;;;;;;6.22;3.97;;;;;;;2.06;65.18;100790.91;6272045;28;20513;-76
2021/12/21 13:37:29;;;;;;;5.55;3.63;;;;;;;1.91;65.76;100798.81;6271564;28;20033;-76
2021/12/21 13:40:30;;;;;;;11.48;4.28;;;;;;;2.12;65.20;100801.09;6272490;28;20068;-76
2021/12/21 13:43:32;;;;;;;10.15;4.57;;;;;;;2.08;66.71;100801.16;6239330;28;20484;-76
2021/12/21 13:46:33;;;;;;;6.97;4.25;;;;;;;2.13;67.22;100801.94;6273563;28;20051;-76
2021/12/21 13:49:34;;;;;;;8.80;4.50;;;;;;;1.99;67.45;100795.25;6272189;28;20407;-76
2021/12/21 13:52:38;;;;;;;8.00;4.00;;;;;;;1.99;67.57;100795.25;6273270;28;20048;-76
2021/12/21 13:55:41;;;;;;;12.25;4.60;;;;;;;1.79;68.42;100795.53;6272728;28;20056;-81
2021/12/21 13:58:42;;;;;;;;;;;;;;;1.67;68.22;100800.84;6263355;28;20407;-76
2021/12/21 14:01:47;;;;;;;7.60;4.03;;;;;;;1.51;68.73;100807.88;6270305;28;19948;-76
2021/12/21 14:04:59;;;;;;;6.35;3.78;;;;;;;1.53;68.72;100806.16;6272721;28;20033;-76
2021/12/21 14:08:00;;;;;;;7.72;4.00;;;;;;;1.43;70.11;100806.28;6256761;28;20044;-77
2021/12/21 14:11:01;;;;;;;9.80;4.57;;;;;;;1.43;70.72;100808.84;6255227;28;20083;-76
2021/12/21 14:14:11;;;;;;;11.00;5.30;;;;;;;1.36;71.34;100801.22;6274126;28;20040;-79
2021/12/21 14:17:12;;;;;;;7.93;4.43;;;;;;;1.22;72.05;100797.09;6274610;28;20033;-78
2021/12/21 14:20:18;;;;;;;14.50;5.15;;;;;;;1.20;72.65;100808.22;6274460;28;20118;-78
2021/12/21 14:23:19;;;;;;;9.93;4.95;;;;;;;1.11;72.77;100803.19;6274233;28;20089;-78
2021/12/21 14:26:48;;;;;;;11.88;6.07;;;;;;;1.05;73.56;100815.22;6273102;28;20048;-78
2021/12/21 14:29:48;;;;;;;9.48;5.18;;;;;;;0.96;74.01;100809.31;6270670;28;20084;-78
2021/12/21 14:33:20;;;;;;;11.15;6.00;;;;;;;0.99;74.03;100814.44;6272723;28;20056;-78
2021/12/21 14:36:15;;;;;;;21.25;9.70;;;;;;;0.98;73.89;100810.16;6258623;28;20183;-78
2021/12/21 14:39:18;;;;;;;26.70;10.00;;;;;;;0.97;74.49;100807.63;6272814;28;20064;-78
2021/12/21 14:42:20;;;;;;;18.33;7.78;;;;;;;0.93;74.98;100800.81;6273666;28;20033;-78
2021/12/21 14:45:26;;;;;;;23.67;9.68;;;;;;;0.81;75.42;100799.19;6273745;28;20124;-78
2021/12/21 14:48:28;;;;;;;28.55;12.18;;;;;;;0.74;76.42;100807.78;6273658;28;20037;-78
2021/12/21 14:51:37;;;;;;;9.48;5.60;;;;;;;0.69;77.88;100812.97;6273518;28;20055;-78
2021/12/21 14:54:51;;;;;;;9.32;5.80;;;;;;;0.64;78.17;100807.03;6272322;28;20090;-78
2021/12/21 14:57:59;;;;;;;17.30;5.38;;;;;;;0.62;78.29;100806.19;6272583;28;20377;-78
2021/12/21 15:01:03;;;;;;;11.60;5.47;;;;;;;0.55;78.44;100807.94;6271046;28;20045;-78
2021/12/21 15:04:16;;;;;;;16.42;6.90;;;;;;;0.47;78.98;100804.59;6256339;28;20402;-78
2021/12/21 15:07:19;;;;;;;21.40;9.98;;;;;;;0.49;79.87;100815.69;6272555;28;20048;-78
2021/12/21 15:10:22;;;;;;;34.97;11.20;;;;;;;0.44;80.25;100814.88;6272246;28;20067;-78
2021/12/21 15:13:23;;;;;;;22.20;8.90;;;;;;;0.47;80.66;100822.56;6273053;28;20518;-78
2021/12/21 15:16:24;;;;;;;24.85;9.93;;;;;;;0.40;81.46;100814.06;6272858;28;20049;-78
2021/12/21 15:19:25;;;;;;;32.40;11.10;;;;;;;0.33;81.89;100816.66;6272055;28;20037;-78
2021/12/21 15:22:26;;;;;;;35.58;14.43;;;;;;;0.34;81.97;100815.81;6271287;28;20033;-79
2021/12/21 15:25:28;;;;;;;32.25;14.02;;;;;;;0.29;82.30;100823.56;6273201;28;20036;-79